Time;durP1;ratioP1;P1;durP2;ratioP2;P2;SDS_P1;SDS_P2;PMS_P1;PMS_P2;Temp;Humidity;BMP_temperature;BMP_pressure;BME280_temperature;BME280_humidity;BME280_pressure;Samples;Min_cycle;Max_cycle;Signal;HPM_P1;HPM_P2
2022/09/04 00:02:33;;;;;;;15.90;9.30;;;;;;;14.15;47.05;100682.21;107699;1270;112410;-77
2022/09/04 00:05:14;;;;;;;16.80;9.60;;;;;;;14.10;47.37;100678.20;107609;1271;138163;-77
2022/09/04 00:08:01;;;;;;;14.50;8.80;;;;;;;14.09;47.47;100678.96;106395;1270;107770;-77
2022/09/04 00:10:41;;;;;;;16.70;9.60;;;;;;;14.08;47.61;100680.73;106006;1271;138969;-77
2022/09/04 00:13:18;;;;;;;16.60;9.40;;;;;;;14.07;47.58;100681.98;106219;1271;97815;-77
2022/09/04 00:15:57;;;;;;;14.30;8.40;;;;;;;14.05;47.83;100682.42;106182;1271;111158;-77
2022/09/04 00:18:35;;;;;;;15.70;8.30;;;;;;;14.01;47.88;100685.05;106184;1271;108757;-76
2022/09/04 00:21:13;;;;;;;19.10;9.20;;;;;;;13.97;48.12;100687.98;106062;1271;107988;-77
2022/09/04 00:23:51;;;;;;;16.90;8.90;;;;;;;13.95;48.19;100688.96;105970;1271;137920;-77
2022/09/04 00:26:38;;;;;;;16.60;8.80;;;;;;;13.86;48.20;100687.88;106082;1271;98499;-77
2022/09/04 00:29:17;;;;;;;20.50;9.40;;;;;;;13.78;48.37;100690.28;105996;1271;137904;-76
2022/09/04 00:31:58;;;;;;;16.50;9.50;;;;;;;13.73;48.55;100689.45;105973;1273;108869;-76
2022/09/04 00:34:42;;;;;;;14.90;9.10;;;;;;;13.68;48.88;100690.54;107489;1271;138181;-76
2022/09/04 00:37:21;;;;;;;16.30;9.60;;;;;;;13.65;49.05;100690.98;107662;1272;96342;-78
2022/09/04 00:39:58;;;;;;;17.00;9.80;;;;;;;13.65;49.12;100690.65;107668;1273;96186;-77
2022/09/04 00:42:47;;;;;;;16.10;9.20;;;;;;;13.63;49.27;100690.02;107687;1270;111547;-77
2022/09/04 00:45:33;;;;;;;14.80;8.80;;;;;;;13.58;49.22;100690.70;107714;1270;108795;-77
2022/09/04 00:48:33;;;;;;;17.90;9.90;;;;;;;13.55;49.43;100693.95;107557;1270;138017;-77
2022/09/04 00:51:29;;;;;;;17.90;9.90;;;;;;;13.54;49.61;100696.13;106302;1271;97935;-77
2022/09/04 00:54:17;;;;;;;20.00;9.70;;;;;;;13.52;49.64;100695.67;105972;1271;137939;-78
2022/09/04 00:57:17;;;;;;;15.20;9.30;;;;;;;13.48;49.79;100699.32;106047;1271;112362;-76
2022/09/04 01:00:04;;;;;;;20.00;10.40;;;;;;;13.46;49.85;100706.02;105929;1271;138079;-76
2022/09/04 01:02:55;;;;;;;14.80;9.60;;;;;;;13.41;49.91;100704.63;106096;1271;107440;-76
2022/09/04 01:05:39;;;;;;;16.50;9.10;;;;;;;13.35;49.90;100706.09;106186;1270;138045;-77
2022/09/04 01:08:23;;;;;;;18.20;9.80;;;;;;;13.27;50.19;100708.09;107803;1270;95660;-77
2022/09/04 01:11:08;;;;;;;15.70;9.30;;;;;;;13.22;50.37;100707.02;107540;1272;138510;-77
2022/09/04 01:13:43;;;;;;;15.20;9.90;;;;;;;13.20;50.43;100710.27;107807;1270;107084;-77
2022/09/04 01:16:22;;;;;;;18.10;9.40;;;;;;;13.17;50.68;100712.27;107650;1270;140334;-77
2022/09/04 01:18:59;;;;;;;19.00;9.50;;;;;;;13.16;50.65;100714.04;107756;1270;96127;-77
2022/09/04 01:21:47;;;;;;;;;;;;;;;13.13;50.82;100715.39;107761;1270;96377;-77
2022/09/04 01:24:39;;;;;;;19.20;10.80;;;;;;;13.10;50.99;100720.54;107623;1270;125444;-77
2022/09/04 01:27:15;;;;;;;16.40;10.00;;;;;;;13.11;51.07;100715.63;106678;1270;109034;-77
2022/09/04 01:29:56;;;;;;;18.70;9.80;;;;;;;13.12;50.97;100715.09;105965;1271;139558;-76
2022/09/04 01:32:43;;;;;;;18.20;10.50;;;;;;;13.09;51.03;100719.72;106131;1270;97812;-77
2022/09/04 01:35:27;;;;;;;16.80;10.70;;;;;;;13.08;51.18;100725.69;106098;1270;139047;-76
2022/09/04 01:38:07;;;;;;;16.20;9.90;;;;;;;13.06;51.14;100725.57;106231;1270;111410;-77
2022/09/04 01:40:49;;;;;;;13.20;9.40;;;;;;;13.03;51.26;100727.41;106023;1270;138097;-76
2022/09/04 01:43:23;;;;;;;14.70;9.20;;;;;;;12.99;51.22;100724.78;106194;1270;110519;-77
2022/09/04 01:46:15;;;;;;;17.80;9.50;;;;;;;12.94;51.32;100729.48;106080;1271;97974;-76
2022/09/04 01:48:54;;;;;;;20.50;10.60;;;;;;;12.91;51.50;100731.83;106287;1270;97699;-77
2022/09/04 01:51:34;;;;;;;17.10;9.60;;;;;;;12.88;51.57;100729.68;106230;1271;112620;-77
2022/09/04 01:54:22;;;;;;;19.00;9.50;;;;;;;12.84;51.58;100730.87;105981;1270;138550;-76
2022/09/04 01:57:08;;;;;;;19.60;9.30;;;;;;;12.77;51.72;100736.16;106117;1270;107793;-76
2022/09/04 01:59:52;;;;;;;17.30;9.20;;;;;;;12.69;51.84;100732.58;106149;1270;138139;-76
2022/09/04 02:02:29;;;;;;;16.70;10.30;;;;;;;12.64;52.01;100732.41;106367;1260;97826;-77
2022/09/04 02:05:12;;;;;;;14.70;9.00;;;;;;;12.60;52.12;100727.85;107600;1270;139924;-76
2022/09/04 02:07:49;;;;;;;19.20;9.70;;;;;;;12.56;52.33;100728.99;106925;1270;108967;-77
2022/09/04 02:10:35;;;;;;;16.90;10.20;;;;;;;12.55;52.49;100727.63;106074;1270;139516;-76
2022/09/04 02:13:21;;;;;;;16.90;9.40;;;;;;;12.54;52.46;100726.09;106108;1271;97882;-76
2022/09/04 02:16:07;;;;;;;19.20;9.50;;;;;;;12.51;52.59;100723.06;106147;1270;97886;-76
2022/09/04 02:18:50;;;;;;;16.60;9.80;;;;;;;12.45;52.61;100720.47;106228;1270;112501;-77
2022/09/04 02:21:31;;;;;;;18.70;9.20;;;;;;;12.40;52.66;100722.04;106233;1270;107972;-76
2022/09/04 02:24:14;;;;;;;16.80;9.20;;;;;;;12.36;52.86;100727.21;106052;1270;138149;-77
2022/09/04 02:26:52;;;;;;;15.60;9.70;;;;;;;12.33;52.90;100724.86;106467;1270;97829;-77
2022/09/04 02:29:33;;;;;;;17.50;8.90;;;;;;;12.30;53.08;100728.10;106106;1270;138004;-76
2022/09/04 02:32:17;;;;;;;13.70;9.60;;;;;;;12.28;53.29;100729.57;106069;1270;110869;-77
2022/09/04 02:34:55;;;;;;;17.20;9.50;;;;;;;12.27;53.24;100725.25;106058;1270;138118;-77
2022/09/04 02:37:36;;;;;;;15.40;9.80;;;;;;;12.24;53.41;100726.73;106141;1270;107784;-75
2022/09/04 02:40:17;;;;;;;15.50;9.50;;;;;;;12.20;53.45;100728.76;105974;1270;138134;-76
2022/09/04 02:43:05;;;;;;;15.50;9.10;;;;;;;12.18;53.64;100730.04;106197;1270;97771;-76
2022/09/04 02:45:45;;;;;;;17.80;9.50;;;;;;;12.16;53.77;100726.61;106138;1270;110396;-77
2022/09/04 02:48:24;;;;;;;15.80;9.70;;;;;;;12.15;53.83;100726.84;107652;1270;138430;-77
2022/09/04 02:51:13;;;;;;;15.80;8.80;;;;;;;12.12;53.90;100723.80;107486;1270;108891;-77
2022/09/04 02:53:56;;;;;;;16.20;9.10;;;;;;;12.08;53.87;100722.00;105986;1270;138795;-77
2022/09/04 02:56:39;;;;;;;15.40;8.90;;;;;;;12.04;54.03;100722.81;106094;1270;97852;-77
2022/09/04 02:59:28;;;;;;;20.00;9.40;;;;;;;12.03;54.23;100729.47;106042;1270;138520;-77
2022/09/04 03:02:02;;;;;;;13.80;8.90;;;;;;;12.03;54.41;100726.15;106110;1270;109786;-77
2022/09/04 03:04:41;;;;;;;14.50;9.50;;;;;;;12.03;54.46;100726.51;106056;1269;139195;-77
2022/09/04 03:07:20;;;;;;;15.30;8.90;;;;;;;12.05;54.38;100728.55;106074;1270;97841;-77
2022/09/04 03:09:59;;;;;;;16.10;9.50;;;;;;;12.04;54.53;100729.77;106169;1270;97944;-77
2022/09/04 03:12:38;;;;;;;16.30;9.20;;;;;;;12.04;54.64;100730.48;106214;1270;112151;-77
2022/09/04 03:15:19;;;;;;;14.50;9.00;;;;;;;12.04;54.60;100731.16;106178;1270;107778;-77
2022/09/04 03:18:00;;;;;;;15.90;9.90;;;;;;;12.03;54.63;100732.42;106121;1270;140303;-78
2022/09/04 03:20:39;;;;;;;14.70;9.70;;;;;;;12.03;54.60;100733.31;106258;1270;97930;-77
2022/09/04 03:23:15;;;;;;;15.70;9.50;;;;;;;12.02;54.78;100733.48;106124;1270;138629;-77
2022/09/04 03:26:04;;;;;;;16.00;9.20;;;;;;;12.02;54.86;100736.27;106230;1271;112224;-77
2022/09/04 03:28:51;;;;;;;16.80;9.40;;;;;;;12.02;54.90;100738.54;106134;1270;138976;-77
2022/09/04 03:31:32;;;;;;;13.70;9.00;;;;;;;12.01;54.97;100734.02;106176;1270;108927;-77
2022/09/04 03:34:18;;;;;;;19.70;9.60;;;;;;;12.00;55.04;100733.04;106046;1270;139052;-76
2022/09/04 03:37:07;;;;;;;18.50;10.20;;;;;;;12.02;55.17;100737.68;106269;1270;97934;-77
2022/09/04 03:39:50;;;;;;;15.60;9.40;;;;;;;12.04;55.19;100738.50;106221;1270;112561;-77
2022/09/04 03:42:32;;;;;;;13.20;8.80;;;;;;;12.04;55.28;100743.91;106064;1271;139899;-77
2022/09/04 03:45:16;;;;;;;15.30;9.50;;;;;;;12.04;55.45;100741.98;106193;1270;108820;-77
2022/09/04 03:48:01;;;;;;;14.70;9.30;;;;;;;12.03;55.43;100746.54;106090;1270;138823;-77
2022/09/04 03:50:42;;;;;;;15.00;9.50;;;;;;;11.99;55.88;100742.81;106160;1271;98025;-77
2022/09/04 03:53:22;;;;;;;17.90;9.80;;;;;;;11.96;56.22;100743.97;106087;1270;138674;-77
2022/09/04 03:56:17;;;;;;;17.80;9.70;;;;;;;11.94;56.48;100740.55;106221;1270;108934;-76
2022/09/04 03:59:00;;;;;;;15.80;9.60;;;;;;;11.92;56.52;100743.92;106057;1270;139334;-76
2022/09/04 04:01:47;;;;;;;18.70;9.80;;;;;;;11.89;56.84;100745.77;106216;1271;97915;-76
2022/09/04 04:04:59;;;;;;;15.60;9.30;;;;;;;11.88;57.28;100748.22;106119;1270;138894;-76
2022/09/04 04:07:40;;;;;;;14.10;8.80;;;;;;;11.88;57.54;100748.56;106207;1270;112076;-76
2022/09/04 04:10:22;;;;;;;19.00;9.10;;;;;;;11.86;57.46;100751.94;107672;1271;138985;-75
2022/09/04 04:13:25;;;;;;;14.70;9.10;;;;;;;11.83;57.63;100749.39;107749;1270;108830;-76
2022/09/04 04:16:12;;;;;;;17.00;9.90;;;;;;;11.82;57.88;100751.52;107791;1270;96003;-76
2022/09/04 04:19:12;;;;;;;14.30;10.00;;;;;;;11.85;58.15;100753.18;107807;1270;96423;-76
2022/09/04 04:22:00;;;;;;;19.50;9.90;;;;;;;11.94;58.48;100758.14;107827;1270;112434;-76
2022/09/04 04:24:46;;;;;;;16.60;9.60;;;;;;;12.12;58.66;100764.91;107734;1271;109672;-76
2022/09/04 04:27:35;;;;;;;17.40;10.00;;;;;;;12.37;58.62;100766.75;107781;1270;109950;-76
2022/09/04 04:30:13;;;;;;;15.00;9.40;;;;;;;12.63;58.39;100769.06;107699;1270;139739;-76
2022/09/04 04:33:15;;;;;;;14.70;9.60;;;;;;;12.98;58.00;100774.02;107831;1270;96159;-75
2022/09/04 04:35:56;;;;;;;16.50;9.40;;;;;;;13.50;57.51;100775.41;107626;1270;138863;-76
2022/09/04 04:38:39;;;;;;;15.00;8.70;;;;;;;13.98;56.95;100775.38;107749;1270;108930;-76
2022/09/04 04:47:34;;;;;;;14.30;9.70;;;;;;;15.01;54.61;100779.66;107317;1274;139629;-76
2022/09/04 04:50:19;;;;;;;14.40;9.40;;;;;;;15.27;54.38;100778.24;107550;1274;111441;-76
2022/09/04 04:53:04;;;;;;;14.80;9.30;;;;;;;15.45;53.98;100776.75;107403;1274;138755;-75
2022/09/04 04:55:48;;;;;;;14.40;9.70;;;;;;;15.45;53.63;100778.65;107394;1276;107850;-76
2022/09/04 04:58:40;;;;;;;12.90;9.40;;;;;;;15.34;53.52;100785.09;107405;1275;139060;-76
2022/09/04 05:01:25;;;;;;;13.60;9.10;;;;;;;15.47;53.67;100785.59;107180;1274;96377;-76
2022/09/04 05:04:08;;;;;;;14.90;8.40;;;;;;;15.80;53.58;100782.57;107463;1274;111481;-75
2022/09/04 05:06:47;;;;;;;13.80;9.50;;;;;;;16.37;53.06;100789.20;107492;1274;107939;-76
2022/09/04 05:09:29;;;;;;;15.30;9.60;;;;;;;17.07;52.15;100788.42;107523;1274;108785;-76
2022/09/04 05:12:09;;;;;;;13.50;9.30;;;;;;;17.88;51.31;100785.98;107427;1274;138782;-76
2022/09/04 05:14:52;;;;;;;14.00;8.50;;;;;;;18.66;50.32;100786.21;107472;1274;96091;-76
2022/09/04 05:17:31;;;;;;;11.80;8.00;;;;;;;19.39;49.03;100781.77;107418;1274;137955;-76
2022/09/04 05:20:23;;;;;;;12.30;8.60;;;;;;;20.04;47.91;100781.83;106868;1275;109179;-75
2022/09/04 05:23:05;;;;;;;9.90;8.00;;;;;;;20.72;46.58;100785.77;106063;1270;138708;-75
2022/09/04 05:25:45;;;;;;;13.00;8.10;;;;;;;21.33;45.53;100783.43;106190;1270;98611;-75
2022/09/04 05:28:28;;;;;;;15.60;7.90;;;;;;;21.94;44.57;100784.34;106100;1270;137943;-75
2022/09/04 05:31:12;;;;;;;10.60;8.10;;;;;;;22.51;43.76;100783.97;106202;1270;112369;-75
2022/09/04 05:33:58;;;;;;;11.70;7.70;;;;;;;23.09;42.84;100784.95;106249;1271;109184;-75
2022/09/04 05:36:41;;;;;;;8.40;7.60;;;;;;;23.61;41.91;100783.65;106096;1270;108889;-75
2022/09/04 05:39:22;;;;;;;13.20;7.70;;;;;;;24.08;40.96;100783.41;106178;1270;97947;-75
2022/09/04 05:42:12;;;;;;;10.10;7.80;;;;;;;24.50;40.26;100789.16;106135;1270;139913;-76
2022/09/04 05:44:57;;;;;;;12.90;7.50;;;;;;;24.82;39.27;100790.02;106235;1270;114103;-76
2022/09/04 05:47:42;;;;;;;8.90;7.20;;;;;;;25.21;38.67;100794.45;106053;1270;138018;-75
2022/09/04 05:50:26;;;;;;;11.40;7.20;;;;;;;25.48;38.10;100789.95;106157;1270;108763;-75
2022/09/04 05:53:26;;;;;;;8.40;7.40;;;;;;;25.86;37.69;100792.23;106110;1270;140035;-75
2022/09/04 05:56:19;;;;;;;8.10;6.30;;;;;;;26.16;36.98;100792.73;106227;1270;97795;-76
2022/09/04 05:59:03;;;;;;;12.00;7.60;;;;;;;26.43;36.14;100790.15;106100;1270;137875;-74
2022/09/04 06:01:57;;;;;;;11.10;6.70;;;;;;;26.67;35.86;100792.33;106228;1270;107874;-74
2022/09/04 06:04:49;;;;;;;9.60;6.70;;;;;;;27.01;35.04;100789.86;106002;1270;138234;-75
2022/09/04 06:07:29;;;;;;;9.80;6.80;;;;;;;27.30;34.58;100791.10;106278;1270;97880;-71
2022/09/04 06:10:10;;;;;;;8.20;6.30;;;;;;;27.67;34.33;100795.77;107738;1270;139419;-71
2022/09/04 06:13:16;;;;;;;7.40;6.00;;;;;;;28.06;34.24;100791.73;107882;1270;111563;-73
2022/09/04 06:15:56;;;;;;;;;;;;;;;28.62;33.64;100789.77;107915;1270;109087;-72
2022/09/04 06:18:46;;;;;;;9.30;6.80;;;;;;;29.08;32.92;100795.19;107783;1268;109042;-74
2022/09/04 06:21:45;;;;;;;8.60;6.00;;;;;;;29.53;32.43;100795.46;107781;1270;96015;-74
2022/09/04 06:24:44;;;;;;;11.10;6.30;;;;;;;30.19;31.94;100796.38;107683;1270;137765;-74
2022/09/04 06:27:35;;;;;;;10.30;6.90;;;;;;;30.66;30.94;100803.73;107780;1270;112415;-74
2022/09/04 06:30:11;;;;;;;8.10;6.20;;;;;;;30.77;30.37;100803.46;107719;1270;138640;-76
2022/09/04 06:33:04;;;;;;;;;;;;;;;30.89;30.11;100803.37;107795;1270;108810;-73
2022/09/04 06:35:56;;;;;;;8.10;5.70;;;;;;;31.04;29.74;100799.63;107619;1270;124405;-76
2022/09/04 06:38:55;;;;;;;9.80;5.70;;;;;;;31.11;29.56;100805.27;107826;1270;96241;-74
2022/09/04 06:41:54;;;;;;;7.70;5.70;;;;;;;30.97;29.52;100806.50;107731;1270;137686;-75
2022/09/04 06:44:39;;;;;;;8.00;5.10;;;;;;;31.04;29.34;100812.02;107754;1270;109073;-75
2022/09/04 06:47:27;;;;;;;7.70;5.40;;;;;;;31.26;29.28;100813.19;107696;1270;139328;-75
2022/09/04 06:50:16;;;;;;;6.70;4.60;;;;;;;31.67;29.25;100812.52;107594;1270;97835;-75
2022/09/04 06:53:02;;;;;;;10.50;5.10;;;;;;;32.11;28.98;100813.71;106226;1270;137715;-73
2022/09/04 06:55:44;;;;;;;8.70;4.90;;;;;;;32.38;28.35;100809.25;106372;1270;112469;-73
2022/09/04 06:58:42;;;;;;;5.50;4.50;;;;;;;32.59;28.41;100813.02;106248;1270;138079;-76
2022/09/04 07:01:19;;;;;;;8.10;4.80;;;;;;;32.90;27.76;100811.54;107035;1270;108867;-75
2022/09/04 07:04:04;;;;;;;6.20;4.70;;;;;;;33.19;27.53;100813.62;106335;1270;98425;-75
2022/09/04 07:06:47;;;;;;;8.70;4.90;;;;;;;33.40;26.88;100817.86;106338;1270;97842;-75
2022/09/04 07:09:24;;;;;;;6.10;4.10;;;;;;;33.47;26.57;100820.64;106333;1270;111359;-76
2022/09/04 07:12:20;;;;;;;5.70;4.20;;;;;;;33.65;26.40;100820.95;106187;1270;137813;-76
2022/09/04 07:15:20;;;;;;;7.10;4.00;;;;;;;33.83;25.97;100819.84;106263;1270;108717;-76
2022/09/04 07:18:02;;;;;;;5.50;3.70;;;;;;;33.92;26.03;100816.38;104795;1276;1399824;-76
2022/09/04 07:20:41;;;;;;;6.80;3.70;;;;;;;34.22;26.05;100816.54;105954;1276;97884;-76
2022/09/04 07:23:31;;;;;;;4.60;3.50;;;;;;;34.65;25.66;100816.65;105751;1276;139514;-76
2022/09/04 07:26:16;;;;;;;4.70;3.20;;;;;;;34.89;24.89;100818.60;105916;1276;108863;-77
2022/09/04 07:28:59;;;;;;;5.80;3.60;;;;;;;34.95;24.86;100821.40;105811;1276;138288;-77
2022/09/04 07:31:39;;;;;;;4.40;2.90;;;;;;;35.04;25.01;100822.69;105839;1276;97825;-75
2022/09/04 07:34:19;;;;;;;6.40;3.00;;;;;;;35.30;24.77;100822.95;105794;1276;138259;-76
2022/09/04 07:36:58;;;;;;;4.10;2.80;;;;;;;35.49;24.68;100826.86;105883;1276;112486;-77
2022/09/04 07:39:40;;;;;;;4.00;2.60;;;;;;;35.55;23.81;100829.55;105963;1276;107967;-77
2022/09/04 07:42:18;;;;;;;3.80;2.50;;;;;;;35.48;23.85;100826.03;105795;1276;139300;-76
2022/09/04 07:45:01;;;;;;;4.30;2.70;;;;;;;35.58;23.68;100827.83;105865;1275;98013;-77
2022/09/04 07:47:41;;;;;;;6.00;2.80;;;;;;;35.71;23.43;100835.05;105782;1276;140272;-77
2022/09/04 07:50:18;;;;;;;4.90;3.10;;;;;;;35.58;23.56;100830.08;105899;1276;112529;-78
2022/09/04 07:53:12;;;;;;;6.00;3.30;;;;;;;35.59;23.33;100833.64;105767;1276;138000;-78
2022/09/04 07:55:46;;;;;;;3.80;3.10;;;;;;;35.47;23.09;100832.17;106042;1271;109194;-77
2022/09/04 07:58:48;;;;;;;5.40;2.90;;;;;;;35.46;23.11;100832.83;106204;1270;139252;-77
2022/09/04 08:01:42;;;;;;;4.40;3.20;;;;;;;35.28;22.97;100835.87;107848;1270;95989;-76
2022/09/04 08:04:32;;;;;;;3.80;3.20;;;;;;;35.09;23.25;100835.38;107732;1270;138158;-76
2022/09/04 08:07:07;;;;;;;7.50;3.30;;;;;;;34.92;23.55;100839.09;106740;1270;108756;-72
2022/09/04 08:10:14;;;;;;;7.40;3.60;;;;;;;34.89;23.16;100839.60;106328;1270;108984;-76
2022/09/04 08:13:04;;;;;;;3.60;3.10;;;;;;;34.73;23.16;100833.95;106333;1270;97831;-75
2022/09/04 08:15:47;;;;;;;4.40;3.60;;;;;;;34.74;23.34;100838.67;106348;1270;97810;-72
2022/09/04 08:18:52;;;;;;;8.80;3.60;;;;;;;34.67;23.06;100837.80;106232;1270;138577;-73
2022/09/04 08:21:29;;;;;;;6.20;3.40;;;;;;;34.56;22.90;100839.35;106368;1270;107914;-74
2022/09/04 08:24:40;;;;;;;4.00;3.40;;;;;;;34.41;23.14;100835.46;106397;1270;139371;-74
2022/09/04 08:27:26;;;;;;;5.90;3.40;;;;;;;34.27;23.21;100838.81;106292;1270;97828;-73
2022/09/04 08:30:08;;;;;;;6.20;3.50;;;;;;;34.19;23.52;100841.17;106255;1270;137832;-74
2022/09/04 08:32:56;;;;;;;6.40;3.80;;;;;;;34.10;24.09;100844.49;106345;1270;112259;-75
2022/09/04 08:35:33;;;;;;;6.00;3.50;;;;;;;34.04;23.67;100853.20;106246;1270;138098;-74
2022/09/04 08:38:31;;;;;;;4.80;3.40;;;;;;;33.94;22.72;100857.33;106297;1270;108447;-74
2022/09/04 08:41:28;;;;;;;6.00;3.50;;;;;;;33.70;22.95;100856.03;106156;1270;137997;-74
2022/09/04 08:44:27;;;;;;;3.90;3.50;;;;;;;33.35;23.16;100855.91;106336;1270;97998;-73
2022/09/04 08:47:23;;;;;;;5.30;3.40;;;;;;;33.14;23.43;100859.45;106243;1271;137802;-75
2022/09/04 08:50:17;;;;;;;5.90;3.10;;;;;;;33.17;23.73;100856.45;106126;1272;107831;-75
2022/09/04 08:53:16;;;;;;;7.20;3.50;;;;;;;33.12;23.12;100858.08;106120;1270;137864;-71
2022/09/04 08:55:55;;;;;;;5.30;3.50;;;;;;;32.99;23.38;100852.36;105818;1276;97847;-77
2022/09/04 08:59:09;;;;;;;6.30;3.40;;;;;;;32.85;24.08;100847.61;105755;1276;138226;-75
2022/09/04 09:02:10;;;;;;;5.50;3.50;;;;;;;33.01;23.85;100855.73;105394;1282;112170;-75
2022/09/04 09:05:09;;;;;;;5.10;3.70;;;;;;;33.19;24.13;100854.78;105384;1282;139972;-75
2022/09/04 09:08:13;;;;;;;4.40;3.10;;;;;;;33.23;23.10;100857.39;105319;1282;107806;-75
2022/09/04 09:11:13;;;;;;;7.00;4.00;;;;;;;33.04;23.11;100855.95;105349;1282;138039;-74
2022/09/04 09:14:33;;;;;;;4.80;3.50;;;;;;;32.93;22.82;100855.63;105295;1282;97878;-74
2022/09/04 09:17:15;;;;;;;12.10;4.10;;;;;;;32.68;23.03;100844.55;104750;1287;137851;-75
2022/09/04 09:19:58;;;;;;;;;;;;;;;32.63;23.59;100844.38;104901;1287;110282;-76
2022/09/04 09:23:08;;;;;;;5.40;4.00;;;;;;;32.69;23.91;100845.41;104848;1287;124588;-76
2022/09/04 09:25:51;;;;;;;5.80;3.80;;;;;;;32.90;24.30;100851.45;104873;1287;97838;-76
2022/09/04 09:29:11;;;;;;;6.00;4.50;;;;;;;33.17;24.12;100849.56;104787;1287;138577;-77
2022/09/04 09:32:33;;;;;;;6.40;3.80;;;;;;;33.41;23.61;100850.20;104903;1287;111346;-77
2022/09/04 09:36:01;;;;;;;5.70;3.80;;;;;;;33.66;23.97;100844.30;105435;1281;138298;-80
2022/09/04 09:39:00;;;;;;;6.30;3.80;;;;;;;34.01;23.18;100837.84;106444;1279;108913;-78
2022/09/04 09:41:58;;;;;;;4.70;3.70;;;;;;;34.27;23.23;100834.06;105792;1276;138107;-76
2022/09/04 09:45:07;;;;;;;6.00;4.10;;;;;;;34.54;22.87;100838.58;105968;1276;97938;-75
2022/09/04 09:48:18;;;;;;;6.90;3.70;;;;;;;34.79;22.52;100834.72;105837;1276;138070;-78
2022/09/04 09:51:27;;;;;;;5.40;4.10;;;;;;;34.57;21.76;100840.85;105977;1276;108805;-77
2022/09/04 09:54:47;;;;;;;4.60;3.60;;;;;;;34.06;21.03;100843.96;105987;1270;139581;-75
2022/09/04 09:58:01;;;;;;;9.30;4.10;;;;;;;33.26;22.21;100847.95;105888;1276;97929;-73
2022/09/04 10:00:45;;;;;;;5.30;3.90;;;;;;;32.99;22.42;100845.71;105770;1276;97801;-73
2022/09/04 10:04:05;;;;;;;6.10;4.40;;;;;;;32.87;22.42;100844.60;105767;1277;112679;-74
2022/09/04 10:07:21;;;;;;;6.60;4.30;;;;;;;31.89;22.51;100846.96;105282;1282;107828;-75
2022/09/04 10:10:17;;;;;;;6.70;4.70;;;;;;;31.21;22.87;100843.00;105306;1282;108898;-76
2022/09/04 10:13:18;;;;;;;8.80;5.00;;;;;;;31.36;23.20;100843.50;106625;1282;96150;-73
2022/09/04 10:16:19;;;;;;;15.50;5.80;;;;;;;31.43;23.52;100840.77;105518;1282;97726;-73
2022/09/04 10:19:37;;;;;;;8.80;5.00;;;;;;;31.23;22.11;100840.42;105311;1282;110969;-73
2022/09/04 10:22:48;;;;;;;7.50;4.90;;;;;;;29.96;21.88;100840.00;105055;1284;138347;-73
2022/09/04 10:25:47;;;;;;;8.30;4.90;;;;;;;28.74;23.09;100839.02;105308;1282;107725;-73
2022/09/04 10:28:46;;;;;;;8.50;4.80;;;;;;;27.88;23.66;100840.84;105053;1283;140649;-74
2022/09/04 10:31:47;;;;;;;10.50;5.10;;;;;;;27.25;24.53;100838.30;105302;1284;97881;-71
2022/09/04 10:34:39;;;;;;;8.60;4.80;;;;;;;27.10;25.04;100835.98;105591;1276;138265;-68
2022/09/04 10:37:24;;;;;;;12.80;5.00;;;;;;;27.08;25.94;100834.56;105858;1277;107930;-70
2022/09/04 10:43:30;;;;;;;9.40;5.00;;;;;;;26.97;24.85;100840.89;107293;1276;96267;-70
2022/09/04 10:46:10;;;;;;;7.70;5.20;;;;;;;26.88;25.14;100840.54;107773;1270;138266;-71
2022/09/04 10:49:26;;;;;;;6.60;5.10;;;;;;;26.85;25.09;100842.77;107858;1270;112539;-71
2022/09/04 10:52:47;;;;;;;6.80;5.10;;;;;;;26.39;25.03;100843.87;107818;1270;109150;-71
2022/09/04 10:55:26;;;;;;;7.00;5.30;;;;;;;25.93;25.27;100844.16;107380;1276;108823;-71
2022/09/04 10:58:26;;;;;;;8.00;5.60;;;;;;;25.87;25.75;100842.77;107471;1276;96549;-71
2022/09/04 11:01:21;;;;;;;10.90;6.00;;;;;;;25.91;26.05;100841.83;107517;1276;95873;-72
2022/09/04 11:04:19;;;;;;;7.70;5.20;;;;;;;25.96;26.53;100837.98;107436;1276;112496;-71
2022/09/04 11:07:31;;;;;;;10.10;5.50;;;;;;;26.07;25.99;100839.17;107484;1276;108830;-70
2022/09/04 11:10:27;;;;;;;7.20;5.60;;;;;;;26.04;25.86;100839.15;107383;1276;138301;-72
2022/09/04 11:13:24;;;;;;;8.40;5.20;;;;;;;26.15;25.72;100846.16;107479;1276;96330;-74
2022/09/04 11:16:10;;;;;;;8.60;5.70;;;;;;;26.17;25.66;100848.75;107378;1276;96045;-72
2022/09/04 11:19:09;;;;;;;7.60;5.60;;;;;;;26.11;25.52;100843.32;107459;1276;112446;-72
2022/09/04 11:22:13;;;;;;;9.80;5.30;;;;;;;26.01;25.57;100844.14;105718;1281;108185;-71
2022/09/04 11:25:26;;;;;;;7.60;4.80;;;;;;;25.81;25.71;100842.51;105650;1281;108409;-70
2022/09/04 11:28:49;;;;;;;9.20;5.10;;;;;;;25.65;25.62;100839.11;105473;1281;97997;-67
2022/09/04 11:31:45;;;;;;;8.50;5.20;;;;;;;25.54;25.71;100841.64;106019;1276;97716;-72
2022/09/04 11:34:57;;;;;;;6.20;4.70;;;;;;;25.42;25.60;100840.88;107217;1276;138658;-72
2022/09/04 11:37:55;;;;;;;13.20;5.30;;;;;;;25.30;25.79;100846.88;107451;1276;107775;-69
2022/09/04 11:41:01;;;;;;;9.40;4.80;;;;;;;25.18;26.00;100845.44;106458;1276;139198;-68
2022/09/04 11:43:55;;;;;;;6.40;4.80;;;;;;;25.13;26.12;100843.52;105995;1276;97871;-69
2022/09/04 11:46:51;;;;;;;6.00;4.50;;;;;;;25.08;25.92;100838.27;105943;1277;138095;-70
2022/09/04 11:49:56;;;;;;;7.00;4.90;;;;;;;24.89;25.67;100844.93;107478;1276;111726;-70
2022/09/04 11:52:40;;;;;;;6.80;4.80;;;;;;;24.59;25.41;100840.17;107304;1276;138276;-72
2022/09/04 11:55:34;;;;;;;8.20;4.60;;;;;;;24.45;25.81;100839.34;107458;1276;108817;-71
2022/09/04 11:58:31;;;;;;;6.10;4.60;;;;;;;24.38;26.13;100835.73;107213;1276;139539;-72
2022/09/04 12:01:22;;;;;;;7.10;5.00;;;;;;;24.37;27.33;100829.46;107851;1270;96118;-72
2022/09/04 12:04:27;;;;;;;7.70;4.60;;;;;;;24.59;28.41;100831.60;107791;1270;110792;-73
2022/09/04 12:07:11;;;;;;;6.90;4.40;;;;;;;24.69;29.61;100832.92;107840;1270;109100;-73
2022/09/04 12:10:07;;;;;;;6.80;4.50;;;;;;;24.79;29.46;100828.94;107815;1271;107630;-74
2022/09/04 12:13:13;;;;;;;8.00;4.40;;;;;;;24.83;29.80;100832.33;107841;1271;96061;-73
2022/09/04 12:16:09;;;;;;;9.50;4.90;;;;;;;24.79;29.40;100829.04;107822;1271;96575;-73
2022/09/04 12:19:26;;;;;;;7.30;4.60;;;;;;;24.68;29.30;100827.08;107768;1273;112314;-74
2022/09/04 12:22:36;;;;;;;6.20;4.50;;;;;;;24.53;29.84;100825.38;107813;1271;107817;-73
2022/09/04 12:25:38;;;;;;;9.40;4.70;;;;;;;24.46;30.12;100825.61;107806;1271;108934;-73
2022/09/04 12:28:37;;;;;;;8.60;5.20;;;;;;;24.38;30.35;100830.23;107580;1271;137929;-72
2022/09/04 12:31:27;;;;;;;6.50;4.60;;;;;;;24.29;30.07;100829.21;107848;1271;96004;-73
2022/09/04 12:34:19;;;;;;;7.70;4.30;;;;;;;24.21;30.40;100829.85;106500;1271;137792;-73
2022/09/04 12:37:18;;;;;;;9.80;4.80;;;;;;;24.16;30.69;100831.70;106167;1272;108842;-73
2022/09/04 12:40:13;;;;;;;7.50;5.00;;;;;;;24.15;30.76;100833.23;106904;1270;108954;-73
2022/09/04 12:42:51;;;;;;;10.30;4.90;;;;;;;24.14;30.84;100827.77;106179;1271;97822;-72
2022/09/04 12:45:34;;;;;;;12.00;4.60;;;;;;;24.10;31.12;100829.06;106228;1271;97839;-71
2022/09/04 12:48:14;;;;;;;8.00;4.90;;;;;;;24.11;31.42;100831.36;106025;1270;139468;-72
2022/09/04 12:50:54;;;;;;;6.60;4.70;;;;;;;24.11;31.49;100827.08;106118;1270;107788;-72
2022/09/04 12:53:47;;;;;;;6.80;4.90;;;;;;;24.09;31.49;100827.76;106100;1270;138126;-72
2022/09/04 12:56:34;;;;;;;11.10;4.80;;;;;;;24.10;31.77;100824.52;106158;1271;97946;-74
2022/09/04 12:59:28;;;;;;;8.00;4.80;;;;;;;24.22;31.98;100821.42;106110;1271;137935;-74